Zeynep — H3UK — position and weather

sailwx.info

Track history (hours):
 
Tides and Currents Weather Stations Pressure Air Temp Water Temp Dewpoint Dewpoint Depression Visibility Wind Speed Wind Dir Waves Ship Positions

Zeynep

Last reported at 2018-Jan-20 05:16 UTC. Time now 2018-Jan-20 09:32 UTC.
Position N 55°38' E 006°38'.

Length 177 m; draft 6.3 m.

Type: Cargo ship. MMSI: 352854000.

Date/timePositionNaut miles runAvg speedWind from/ knotsBaromVisibWave heightAir tempDewpointWater temp
2018-Jan-20 05:16N 55°38' E 006°38'13413.5
2018-Jan-19 19:19N 53°39' E 004°51'413.5
2018-Jan-19 19:00N 53°35' E 004°49'713.5
2018-Jan-19 18:30N 53°29' E 004°46'714.3
2018-Jan-19 18:00N 53°22' E 004°42'815.1
2018-Jan-19 17:30N 53°15' E 004°37'815.6
2018-Jan-19 17:00N 53°08' E 004°30'815.3
2018-Jan-19 16:31N 53°02' E 004°24'714.3
2018-Jan-19 16:00N 52°55' E 004°19'714.1
2018-Jan-19 15:30N 52°49' E 004°14'713.9
2018-Jan-19 15:00N 52°43' E 004°08'713.7
2018-Jan-19 14:30N 52°37' E 004°02'613.1
2018-Jan-19 14:00N 52°31' E 003°57'612.8
2018-Jan-19 13:30N 52°26' E 003°52'612.1
2018-Jan-19 13:00N 52°21' E 003°46'612.1
2018-Jan-19 12:30N 52°15' E 003°42'4 8.5
2018-Jan-19 11:59N 52°11' E 003°41'0 0.2
2018-Jan-19 11:29N 52°11' E 003°41'0 0.1
2018-Jan-19 10:59N 52°11' E 003°41'0 0.0
2018-Jan-19 10:29N 52°11' E 003°41'0 0.0
2018-Jan-19 09:59N 52°11' E 003°41'0 0.0
2018-Jan-19 09:29N 52°11' E 003°41'0 0.0
2018-Jan-19 08:59N 52°11' E 003°41'0 0.1
2018-Jan-19 08:29N 52°11' E 003°41'0 0.0
2018-Jan-19 07:59N 52°11' E 003°41'0 0.0
2018-Jan-19 07:26N 52°11' E 003°41'0 0.2
2018-Jan-19 06:59N 52°11' E 003°41'1 2.5
2018-Jan-19 06:31N 52°11' E 003°43'4 9.0
2018-Jan-19 06:01N 52°08' E 003°49'510.5
2018-Jan-19 05:30N 52°04' E 003°54'3 5.5
2018-Jan-19 05:00N 52°02' E 003°56'510.8
2018-Jan-19 04:30N 51°59' E 004°04'5 9.7
2018-Jan-19 04:00N 51°57' E 004°11'4 8.6
2018-Jan-19 03:30N 51°54' E 004°16'4 8.3
2018-Jan-19 03:00N 51°54' E 004°23'1 2.8
2018-Jan-19 02:30N 51°54' E 004°25'0 0.2
2018-Jan-19 02:00N 51°55' E 004°25'0 0.0
2018-Jan-19 01:30N 51°55' E 004°25'0 0.0
2018-Jan-19 01:00N 51°55' E 004°25'0 0.0
2018-Jan-19 00:30N 51°55' E 004°25'0 0.0
2018-Jan-19 00:00N 51°55' E 004°25'0 0.0
2018-Jan-18 23:30N 51°55' E 004°25'0 0.0
2018-Jan-18 23:00N 51°55' E 004°25'0 0.0
2018-Jan-18 22:30N 51°55' E 004°25'0 0.0
2018-Jan-18 22:00N 51°55' E 004°25'0 0.0
2018-Jan-18 21:30N 51°55' E 004°25'0 0.0
2018-Jan-18 21:00N 51°55' E 004°25'0 0.0
2018-Jan-18 20:30N 51°55' E 004°25'0 0.0
2018-Jan-18 20:00N 51°55' E 004°25'0 0.0
2018-Jan-18 19:30N 51°55' E 004°25'0 0.0
2018-Jan-18 19:00N 51°55' E 004°25'0 0.0
2018-Jan-18 18:30N 51°55' E 004°25'0 0.0
2018-Jan-18 18:00N 51°55' E 004°25'0 0.0
2018-Jan-18 17:30N 51°55' E 004°25'0 0.0
2018-Jan-18 17:00N 51°55' E 004°25'0 0.0
2018-Jan-18 16:30N 51°55' E 004°25'0 0.0
2018-Jan-18 16:00N 51°55' E 004°25'0 0.0
2018-Jan-18 15:30N 51°55' E 004°25'0 0.0
2018-Jan-18 15:00N 51°55' E 004°25'0 0.0
2018-Jan-18 14:30N 51°55' E 004°25'0 0.0
2018-Jan-18 14:00N 51°55' E 004°25'0 0.0
2018-Jan-18 13:30N 51°55' E 004°25'0 0.0
2018-Jan-18 13:00N 51°55' E 004°25'0 0.0
2018-Jan-18 12:30N 51°55' E 004°25'0 0.0
2018-Jan-18 12:00N 51°55' E 004°25'0 0.0
2018-Jan-18 11:30N 51°55' E 004°25'0 0.0
2018-Jan-18 11:00N 51°55' E 004°25'0 0.0
2018-Jan-18 10:30N 51°55' E 004°25'0 0.0
2018-Jan-18 10:00N 51°55' E 004°25'0 0.0
2018-Jan-18 09:30N 51°55' E 004°25'0 0.0
2018-Jan-18 09:00N 51°55' E 004°25'0 0.0
2018-Jan-18 08:30N 51°55' E 004°25'0 0.0
2018-Jan-18 08:00N 51°55' E 004°25'0 0.0
2018-Jan-18 07:30N 51°55' E 004°25'0 0.0
2018-Jan-18 07:00N 51°55' E 004°25'0 0.0
2018-Jan-18 06:30N 51°55' E 004°25'0 0.0
2018-Jan-18 06:00N 51°55' E 004°25'0 0.0
2018-Jan-18 05:30N 51°55' E 004°25'0 0.0
2018-Jan-18 05:00N 51°55' E 004°25'0 0.0
2018-Jan-18 04:30N 51°55' E 004°25'0 0.0
2018-Jan-18 04:00N 51°55' E 004°25'0 0.0
2018-Jan-18 03:30N 51°55' E 004°25'0 0.0
2018-Jan-18 03:00N 51°55' E 004°25'0 0.0
2018-Jan-18 02:30N 51°55' E 004°25'0 0.0
2018-Jan-18 02:00N 51°55' E 004°25'0 0.0
2018-Jan-18 01:30N 51°55' E 004°25'0 0.0
2018-Jan-18 01:00N 51°55' E 004°25'0 0.0
2018-Jan-18 00:00N 51°55' E 004°25'0 0.1
2018-Jan-17 23:57N 51°55' E 004°25'  
2018-Jan-10 12:29N 39°31' W 009°52'510.9
2018-Jan-10 12:00N 39°25' W 009°52'510.4
2018-Jan-10 11:30N 39°20' W 009°52'611.4
2018-Jan-10 11:00N 39°14' W 009°52'611.8
2018-Jan-10 10:30N 39°09' W 009°52'611.6
2018-Jan-10 10:00N 39°03' W 009°52'611.7
2018-Jan-10 09:30N 38°57' W 009°52'612.0
2018-Jan-10 09:00N 38°51' W 009°52'611.9
2018-Jan-10 08:30N 38°45' W 009°51'611.6
2018-Jan-10 08:00N 38°39' W 009°50'612.0
2018-Jan-10 07:30N 38°34' W 009°48'612.0
2018-Jan-10 07:00N 38°28' W 009°46'612.0
2018-Jan-10 06:30N 38°22' W 009°44'612.1
2018-Jan-10 06:00N 38°16' W 009°43'612.1
2018-Jan-10 05:30N 38°10' W 009°41'  
Track history (hours):
 
Tides and Currents Weather Stations Pressure Air Temp Water Temp Dewpoint Dewpoint Depression Visibility Wind Speed Wind Dir Waves Ship Positions

Zeynep

Last reported at 2018-Jan-20 05:16 UTC. Time now 2018-Jan-20 09:32 UTC.
Position N 55°38' E 006°38'.

Length 177 m; draft 6.3 m.

Type: Cargo ship. MMSI: 352854000.

Date/timePositionNaut miles runAvg speedWind from/ knotsBaromVisibWave heightAir tempDewpointWater temp
2018-Jan-20 05:16N 55°38' E 006°38'13413.5
2018-Jan-19 19:19N 53°39' E 004°51'413.5
2018-Jan-19 19:00N 53°35' E 004°49'713.5
2018-Jan-19 18:30N 53°29' E 004°46'714.3
2018-Jan-19 18:00N 53°22' E 004°42'815.1
2018-Jan-19 17:30N 53°15' E 004°37'815.6
2018-Jan-19 17:00N 53°08' E 004°30'815.3
2018-Jan-19 16:31N 53°02' E 004°24'714.3
2018-Jan-19 16:00N 52°55' E 004°19'714.1
2018-Jan-19 15:30N 52°49' E 004°14'713.9
2018-Jan-19 15:00N 52°43' E 004°08'713.7
2018-Jan-19 14:30N 52°37' E 004°02'613.1
2018-Jan-19 14:00N 52°31' E 003°57'612.8
2018-Jan-19 13:30N 52°26' E 003°52'612.1
2018-Jan-19 13:00N 52°21' E 003°46'612.1
2018-Jan-19 12:30N 52°15' E 003°42'4 8.5
2018-Jan-19 11:59N 52°11' E 003°41'0 0.2
2018-Jan-19 11:29N 52°11' E 003°41'0 0.1
2018-Jan-19 10:59N 52°11' E 003°41'0 0.0
2018-Jan-19 10:29N 52°11' E 003°41'0 0.0
2018-Jan-19 09:59N 52°11' E 003°41'0 0.0
2018-Jan-19 09:29N 52°11' E 003°41'0 0.0
2018-Jan-19 08:59N 52°11' E 003°41'0 0.1
2018-Jan-19 08:29N 52°11' E 003°41'0 0.0
2018-Jan-19 07:59N 52°11' E 003°41'0 0.0
2018-Jan-19 07:26N 52°11' E 003°41'0 0.2
2018-Jan-19 06:59N 52°11' E 003°41'1 2.5
2018-Jan-19 06:31N 52°11' E 003°43'4 9.0
2018-Jan-19 06:01N 52°08' E 003°49'510.5
2018-Jan-19 05:30N 52°04' E 003°54'3 5.5
2018-Jan-19 05:00N 52°02' E 003°56'510.8
2018-Jan-19 04:30N 51°59' E 004°04'5 9.7
2018-Jan-19 04:00N 51°57' E 004°11'4 8.6
2018-Jan-19 03:30N 51°54' E 004°16'4 8.3
2018-Jan-19 03:00N 51°54' E 004°23'1 2.8
2018-Jan-19 02:30N 51°54' E 004°25'0 0.2
2018-Jan-19 02:00N 51°55' E 004°25'0 0.0
2018-Jan-19 01:30N 51°55' E 004°25'0 0.0
2018-Jan-19 01:00N 51°55' E 004°25'0 0.0
2018-Jan-19 00:30N 51°55' E 004°25'0 0.0
2018-Jan-19 00:00N 51°55' E 004°25'0 0.0
2018-Jan-18 23:30N 51°55' E 004°25'0 0.0
2018-Jan-18 23:00N 51°55' E 004°25'0 0.0
2018-Jan-18 22:30N 51°55' E 004°25'0 0.0
2018-Jan-18 22:00N 51°55' E 004°25'0 0.0
2018-Jan-18 21:30N 51°55' E 004°25'0 0.0
2018-Jan-18 21:00N 51°55' E 004°25'0 0.0
2018-Jan-18 20:30N 51°55' E 004°25'0 0.0
2018-Jan-18 20:00N 51°55' E 004°25'0 0.0
2018-Jan-18 19:30N 51°55' E 004°25'0 0.0
2018-Jan-18 19:00N 51°55' E 004°25'0 0.0
2018-Jan-18 18:30N 51°55' E 004°25'0 0.0
2018-Jan-18 18:00N 51°55' E 004°25'0 0.0
2018-Jan-18 17:30N 51°55' E 004°25'0 0.0
2018-Jan-18 17:00N 51°55' E 004°25'0 0.0
2018-Jan-18 16:30N 51°55' E 004°25'0 0.0
2018-Jan-18 16:00N 51°55' E 004°25'0 0.0
2018-Jan-18 15:30N 51°55' E 004°25'0 0.0
2018-Jan-18 15:00N 51°55' E 004°25'0 0.0
2018-Jan-18 14:30N 51°55' E 004°25'0 0.0
2018-Jan-18 14:00N 51°55' E 004°25'0 0.0
2018-Jan-18 13:30N 51°55' E 004°25'0 0.0
2018-Jan-18 13:00N 51°55' E 004°25'0 0.0
2018-Jan-18 12:30N 51°55' E 004°25'0 0.0
2018-Jan-18 12:00N 51°55' E 004°25'0 0.0
2018-Jan-18 11:30N 51°55' E 004°25'0 0.0
2018-Jan-18 11:00N 51°55' E 004°25'0 0.0
2018-Jan-18 10:30N 51°55' E 004°25'0 0.0
2018-Jan-18 10:00N 51°55' E 004°25'0 0.0
2018-Jan-18 09:30N 51°55' E 004°25'0 0.0
2018-Jan-18 09:00N 51°55' E 004°25'0 0.0
2018-Jan-18 08:30N 51°55' E 004°25'0 0.0
2018-Jan-18 08:00N 51°55' E 004°25'0 0.0
2018-Jan-18 07:30N 51°55' E 004°25'0 0.0
2018-Jan-18 07:00N 51°55' E 004°25'0 0.0
2018-Jan-18 06:30N 51°55' E 004°25'0 0.0
2018-Jan-18 06:00N 51°55' E 004°25'0 0.0
2018-Jan-18 05:30N 51°55' E 004°25'0 0.0
2018-Jan-18 05:00N 51°55' E 004°25'0 0.0
2018-Jan-18 04:30N 51°55' E 004°25'0 0.0
2018-Jan-18 04:00N 51°55' E 004°25'0 0.0
2018-Jan-18 03:30N 51°55' E 004°25'0 0.0
2018-Jan-18 03:00N 51°55' E 004°25'0 0.0
2018-Jan-18 02:30N 51°55' E 004°25'0 0.0
2018-Jan-18 02:00N 51°55' E 004°25'0 0.0
2018-Jan-18 01:30N 51°55' E 004°25'0 0.0
2018-Jan-18 01:00N 51°55' E 004°25'0 0.0
2018-Jan-18 00:00N 51°55' E 004°25'0 0.1
2018-Jan-17 23:57N 51°55' E 004°25'  
2018-Jan-10 12:29N 39°31' W 009°52'510.9
2018-Jan-10 12:00N 39°25' W 009°52'510.4
2018-Jan-10 11:30N 39°20' W 009°52'611.4
2018-Jan-10 11:00N 39°14' W 009°52'611.8
2018-Jan-10 10:30N 39°09' W 009°52'611.6
2018-Jan-10 10:00N 39°03' W 009°52'611.7
2018-Jan-10 09:30N 38°57' W 009°52'612.0
2018-Jan-10 09:00N 38°51' W 009°52'611.9
2018-Jan-10 08:30N 38°45' W 009°51'611.6
2018-Jan-10 08:00N 38°39' W 009°50'612.0
2018-Jan-10 07:30N 38°34' W 009°48'612.0
2018-Jan-10 07:00N 38°28' W 009°46'612.0
2018-Jan-10 06:30N 38°22' W 009°44'612.1
2018-Jan-10 06:00N 38°16' W 009°43'612.1
2018-Jan-10 05:30N 38°10' W 009°41'  

Dump ship's entire track history